Flight Track Log - Related Links

Times and Time Zones

All times are in EDT time to prevent confusion due to time zone crossing. See the SWA503 flight status page for this flight to view local times or setup timezone preferences in your user account.

Time Position Orientation Groundspeed Altitude Reporting Facility
EDT Latitude Longitude Course Direction KTS MPH feet Rate Location/Type
Thu 07:04:25 AM 41.8167 -87.7333 104° East 212 244 3,100  Level Chicago TRACON
Thu 07:05:37 AM 41.8289 -87.6214 82° East 244 281 5,000 1,773 Climbing Chicago Center
Thu 07:06:37 AM 41.8331 -87.5183 87° East 267 307 7,000 2,777 Climbing Chicago Center
Thu 07:07:38 AM 41.8289 -87.4103 93° East 286 329 10,600 3,197 Climbing Chicago Center
Thu 07:08:39 AM 41.8047 -87.2908 105° East 328 377 13,500 3,344 Climbing Chicago Center
Thu 07:09:00 AM 41.6567 -87.0465 104° East  Level Estimated
Thu 07:09:40 AM 41.7800 -87.1622 104° East 351 404 17,400  Level Chicago Center
Thu 07:10:41 AM 41.7603 -87.0225 101° East 379 436 20,600 3,025 Climbing Chicago Center
Thu 07:11:41 AM 41.7631 -86.8733 89° East 400 460 23,500 2,727 Climbing Chicago Center
Thu 07:12:42 AM 41.7644 -86.7183 89° East 418 481 26,100 2,557 Climbing Chicago Center
Thu 07:13:43 AM 41.7661 -86.5367 89° East 438 504 28,700 2,311 Climbing Chicago Center
Thu 07:14:44 AM 41.7672 -86.3681 89° East 450 518 30,800 1,869 Climbing Chicago Center
Thu 07:15:45 AM 41.7608 -86.1944 93° East 468 539 32,500 1,918 Climbing Chicago Center
Thu 07:16:46 AM 41.7492 -86.0194 95° East 473 544 34,700 1,820 Climbing Chicago Center
Thu 07:17:47 AM 41.7389 -85.8447 94° East 470 541 36,200 1,268 Climbing Chicago Center
Thu 07:18:49 AM 41.7283 -85.6650 94° East 482 555 37,300 1,317 Climbing Chicago Center
Thu 07:19:50 AM 41.7139 -85.4572 95° East 497 572 38,900 1,770 Climbing Chicago Center
Thu 07:20:51 AM 41.6997 -85.2819 96° East 483 556 40,900 1,096 Climbing Chicago Center
Thu 07:21:45 AM 41.6914 -85.1081 94° East 495 570 41,000 53 Climbing Cleveland Center
Thu 07:22:45 AM 41.6792 -84.9347 95° East 495 570 41,000  Level Cleveland Center
Thu 07:23:45 AM 41.6669 -84.7586 95° East 481 554 41,000  Level Cleveland Center
Thu 07:24:45 AM 41.6269 -84.5947 108° East 454 522 41,000  Level Cleveland Center
Thu 07:25:45 AM 41.5678 -84.4358 116° Southeast 466 536 41,000  Level Cleveland Center
Thu 07:26:45 AM 41.5125 -84.2825 116° Southeast 466 536 41,000  Level Cleveland Center
Thu 07:27:45 AM 41.4550 -84.1242 116° Southeast 466 536 41,000  Level Cleveland Center
Thu 07:28:45 AM 41.3972 -83.9658 116° Southeast 466 536 41,000  Level Cleveland Center
Thu 07:29:45 AM 41.3447 -83.8303 117° Southeast 466 536 41,000  Level Cleveland Center
Thu 07:30:45 AM 41.2886 -83.6756 116° Southeast 461 531 41,000  Level Cleveland Center
Thu 07:31:45 AM 41.2242 -83.5069 117° Southeast 466 536 41,000  Level Cleveland Center
Thu 07:32:45 AM 41.1675 -83.3525 116° Southeast 466 536 41,000  Level Cleveland Center
Thu 07:33:45 AM 41.1086 -83.2039 118° Southeast 461 531 41,000  Level Cleveland Center
Thu 07:34:45 AM 41.0536 -83.0503 115° Southeast 461 531 41,000  Level Cleveland Center
Thu 07:35:45 AM 40.9942 -82.8994 118° Southeast 461 531 41,000  Level Cleveland Center
Thu 07:38:09 AM 40.8589 -82.5347 116° Southeast 469 540 41,000  Level Indianapolis Center
Thu 07:39:11 AM 40.7992 -82.3792 117° Southeast 471 542 41,000  Level Indianapolis Center
Thu 07:40:12 AM 40.7394 -82.2258 117° Southeast 469 540 41,000  Level Indianapolis Center
Thu 07:41:14 AM 40.6808 -82.0736 117° Southeast 466 536 41,000  Level Indianapolis Center
Thu 07:42:15 AM 40.6214 -81.9208 117° Southeast 468 539 41,000  Level Indianapolis Center
Thu 07:43:21 AM 40.5594 -81.7308 113° Southeast 461 531 41,000  Level Cleveland Center
Thu 07:44:22 AM 40.5089 -81.5744 113° Southeast 461 531 41,000  Level Cleveland Center
Thu 07:45:22 AM 40.4600 -81.4208 113° Southeast 455 524 41,000  Level Cleveland Center
Thu 07:46:21 AM 40.4172 -81.2811 112° Southeast 455 524 41,000  Level Cleveland Center
Thu 07:47:22 AM 40.3661 -81.1253 113° Southeast 455 524 41,000  Level Cleveland Center
Thu 07:48:21 AM 40.3144 -80.9725 114° Southeast 455 524 41,000 -450 Level Cleveland Center
Thu 07:49:22 AM 40.2628 -80.8197 114° Southeast 455 524 40,100 -950 Descending Cleveland Center
Thu 07:50:21 AM 40.2108 -80.6675 114° Southeast 455 524 39,100 -958 Descending Cleveland Center
Thu 07:51:21 AM 40.1589 -80.5097 113° Southeast 460 529 38,200 -950 Descending Cleveland Center
Thu 07:52:21 AM 40.1044 -80.3550 115° Southeast 465 535 37,200 -942 Descending Cleveland Center
Thu 07:53:22 AM 40.0519 -80.1981 114° Southeast 465 535 36,300 -950 Descending Cleveland Center
Thu 07:54:21 AM 39.9972 -80.0439 115° Southeast 465 535 35,300 -390 Descending Cleveland Center
Thu 07:56:42 AM 39.8714 -79.6819 114° Southeast 472 543 35,000 -950 Descending Washington Center
Thu 07:57:43 AM 39.8183 -79.5275 114° Southeast 472 543 32,100 -2,773 Descending Washington Center
Thu 07:58:41 AM 39.7628 -79.3706 115° Southeast 472 543 29,500 -2,550 Descending Washington Center
Thu 07:59:43 AM 39.7111 -79.2250 115° Southeast 459 528 27,000 -2,213 Descending Washington Center
Thu 08:00:43 AM 39.6611 -79.0822 114° Southeast 448 516 25,000 -1,576 Descending Washington Center
Thu 08:01:41 AM 39.6222 -78.9133 107° East 437 503 23,900 -1,017 Descending Washington Center
Thu 08:02:41 AM 39.5908 -78.7639 105° East 437 503 23,000 -992 Descending Washington Center
Thu 08:03:42 AM 39.5592 -78.6169 106° East 426 490 21,900 -1,250 Descending Washington Center
Thu 08:04:41 AM 39.5272 -78.4758 106° East 421 484 20,500 -1,815 Descending Washington Center
Thu 08:05:41 AM 39.4950 -78.3372 107° East 410 472 18,300 -2,231 Descending Washington Center
Thu 08:06:42 AM 39.4667 -78.2072 106° East 396 456 16,000 -1,672 Descending Washington Center
Thu 08:07:43 AM 39.4381 -78.0744 106° East 383 441 14,900 -504 Descending Washington Center
Thu 08:08:41 AM 39.4278 -77.9614 97° East 373 429 15,000 50 Climbing Washington Center
Thu 08:09:42 AM 39.4325 -77.8297 87° East 367 422 15,000 -347 Level Washington Center
Thu 08:10:42 AM 39.4369 -77.6956 88° East 367 422 14,300 -843 Descending Washington Center
Thu 08:11:43 AM 39.4411 -77.5667 88° East 362 417 13,300 -1,109 Descending Washington Center
Thu 08:12:41 AM 39.4433 -77.4378 89° East 362 417 12,100 -1,150 Descending Washington Center
Thu 08:13:43 AM 39.4500 -77.3000 86° East 348 400 11,000 -667 Descending Potomac TRACON
Thu 08:14:38 AM 39.4667 -77.1833 79° East 348 400 10,800 -661 Descending Potomac TRACON
Thu 08:15:32 AM 39.4667 -77.0667 90° East 320 368 9,800 -1,250 Descending Potomac TRACON
Thu 08:16:38 AM 39.4667 -76.9500 90° East 308 354 8,300 -1,500 Descending Potomac TRACON
Thu 08:17:32 AM 39.4667 -76.8500 90° East 298 343 6,800 -1,556 Descending Potomac TRACON
Thu 08:18:26 AM 39.4500 -76.7667 104° East 294 338 5,500 -1,000 Descending Potomac TRACON
Thu 08:19:20 AM 39.4167 -76.6833 117° Southeast 283 326 5,000 -263 Descending Potomac TRACON
Thu 08:20:20 AM 39.4000 -76.5833 102° East 287 330 5,000 -500 Level Potomac TRACON
Thu 08:21:20 AM 39.3333 -76.5167 142° Southeast 283 326 4,000 -496 Descending Potomac TRACON
Thu 08:22:21 AM 39.2667 -76.4833 159° South 270 311 4,000 -496 Level Potomac TRACON
Thu 08:23:21 AM 39.2000 -76.4667 169° South 270 311 3,000 -500 Descending Potomac TRACON
Thu 08:24:21 AM 39.1333 -76.4500 169° South 229 264 3,000 -250 Level Potomac TRACON
Thu 08:25:21 AM 39.0833 -76.4833 207° Southwest 210 242 2,500 -500 Descending Potomac TRACON
Thu 08:26:21 AM 39.0500 -76.5333 229° Southwest 188 216 2,000 -263 Descending Potomac TRACON
Thu 08:27:15 AM 39.0833 -76.5833 311° West 175 201 2,000 -421 Level Potomac TRACON
Thu 08:28:15 AM 39.1167 -76.6167 322° Northwest 154 177 1,200 -694 Descending Potomac TRACON
Thu 08:29:16 AM 39.1500 -76.6500 322° Northwest 130 150 600 -590 Descending Potomac TRACON

Login

Don't have an account? Register now (free) for customized features, flight alerts, and more!